OIIE/IKA METAR and TAF weather

Enter ICAO airport designator
Station Type Date Time Source
OIIE METAR 2019/02/18 04:00 UTC NOAA

OIIE 180400Z 29010KT CAVOK 01/M04 Q1013


Station Type Date Time Source
OIIE Decoded METAR 2019/02/18 04:00 UTC NOAA

Station name not available
Feb 17, 2019 - 11:00 PM EST / 2019.02.18 0400 UTC
Wind: from the WNW (290 degrees) at 12 MPH (10 KT):0
Visibility: greater than 7 mile(s):0
Temperature: 33 F (1 C)
Windchill: 24 F (-4 C):1
Dew Point: 24 F (-4 C)
Relative Humidity: 69%
Pressure (altimeter): 29.91 in. Hg (1013 hPa)
ob: OIIE 180400Z 29010KT CAVOK 01/M04 Q1013
cycle: 4

Station Type Date Time Source
OIIE TAF 2019/02/17 18:00 UTC NOAA

TAF OIIE 171750Z 1718/1824 25010KT 8000 NSC
TEMPO 1718/1724 30018KT


Example: see airport list